sensor_id;sensor_type;location;lat;lon;timestamp;P1;durP1;ratioP1;P2;durP2;ratioP2
13660;SDS011;6903;49.480;11.102;2022-11-06T00:01:20;44.67;;;23.03;;
13660;SDS011;6903;49.480;11.102;2022-11-06T00:03:46;44.67;;;24.07;;
13660;SDS011;6903;49.480;11.102;2022-11-06T00:06:12;43.67;;;23.73;;
13660;SDS011;6903;49.480;11.102;2022-11-06T00:08:58;43.93;;;23.83;;
13660;SDS011;6903;49.480;11.102;2022-11-06T00:11:25;49.00;;;26.13;;
13660;SDS011;6903;49.480;11.102;2022-11-06T00:13:51;46.97;;;26.23;;
13660;SDS011;6903;49.480;11.102;2022-11-06T00:16:16;49.17;;;26.17;;
13660;SDS011;6903;49.480;11.102;2022-11-06T00:18:43;53.67;;;27.50;;
13660;SDS011;6903;49.480;11.102;2022-11-06T00:21:19;48.47;;;25.40;;
13660;SDS011;6903;49.480;11.102;2022-11-06T00:23:46;42.37;;;25.27;;
13660;SDS011;6903;49.480;11.102;2022-11-06T00:26:17;49.33;;;25.80;;
13660;SDS011;6903;49.480;11.102;2022-11-06T00:28:43;50.67;;;25.00;;
13660;SDS011;6903;49.480;11.102;2022-11-06T00:31:18;54.00;;;26.07;;
13660;SDS011;6903;49.480;11.102;2022-11-06T00:33:47;45.70;;;25.47;;
13660;SDS011;6903;49.480;11.102;2022-11-06T00:36:14;52.97;;;26.97;;
13660;SDS011;6903;49.480;11.102;2022-11-06T00:38:41;52.27;;;25.80;;
13660;SDS011;6903;49.480;11.102;2022-11-06T00:41:10;59.43;;;26.33;;
13660;SDS011;6903;49.480;11.102;2022-11-06T00:43:37;61.60;;;27.67;;
13660;SDS011;6903;49.480;11.102;2022-11-06T00:46:12;61.23;;;28.17;;
13660;SDS011;6903;49.480;11.102;2022-11-06T00:48:39;55.00;;;27.33;;
13660;SDS011;6903;49.480;11.102;2022-11-06T00:51:08;63.73;;;28.17;;
13660;SDS011;6903;49.480;11.102;2022-11-06T00:53:35;58.03;;;26.43;;
13660;SDS011;6903;49.480;11.102;2022-11-06T00:58:34;60.70;;;27.37;;
13660;SDS011;6903;49.480;11.102;2022-11-06T01:01:14;59.07;;;28.40;;
13660;SDS011;6903;49.480;11.102;2022-11-06T01:03:44;59.80;;;27.80;;
13660;SDS011;6903;49.480;11.102;2022-11-06T01:06:12;60.00;;;28.63;;
13660;SDS011;6903;49.480;11.102;2022-11-06T01:08:40;60.43;;;26.67;;
13660;SDS011;6903;49.480;11.102;2022-11-06T01:11:10;58.30;;;27.83;;
13660;SDS011;6903;49.480;11.102;2022-11-06T01:13:43;58.27;;;27.60;;
13660;SDS011;6903;49.480;11.102;2022-11-06T01:16:10;68.23;;;28.80;;
13660;SDS011;6903;49.480;11.102;2022-11-06T01:18:38;67.77;;;29.97;;
13660;SDS011;6903;49.480;11.102;2022-11-06T01:21:05;62.40;;;27.53;;
13660;SDS011;6903;49.480;11.102;2022-11-06T01:23:31;65.90;;;27.77;;
13660;SDS011;6903;49.480;11.102;2022-11-06T01:25:57;66.47;;;28.57;;
13660;SDS011;6903;49.480;11.102;2022-11-06T01:28:24;64.93;;;29.37;;
13660;SDS011;6903;49.480;11.102;2022-11-06T01:30:50;57.37;;;27.43;;
13660;SDS011;6903;49.480;11.102;2022-11-06T01:33:16;64.27;;;28.30;;
13660;SDS011;6903;49.480;11.102;2022-11-06T01:35:45;60.83;;;28.77;;
13660;SDS011;6903;49.480;11.102;2022-11-06T01:38:11;61.87;;;28.10;;
13660;SDS011;6903;49.480;11.102;2022-11-06T01:40:41;64.57;;;28.27;;
13660;SDS011;6903;49.480;11.102;2022-11-06T01:43:12;62.40;;;27.67;;
13660;SDS011;6903;49.480;11.102;2022-11-06T01:45:42;61.77;;;27.37;;
13660;SDS011;6903;49.480;11.102;2022-11-06T01:48:10;58.13;;;27.30;;
13660;SDS011;6903;49.480;11.102;2022-11-06T01:50:37;61.00;;;27.80;;
13660;SDS011;6903;49.480;11.102;2022-11-06T01:53:04;59.47;;;28.07;;
13660;SDS011;6903;49.480;11.102;2022-11-06T01:55:31;58.10;;;26.23;;
13660;SDS011;6903;49.480;11.102;2022-11-06T01:58:02;65.17;;;27.90;;
13660;SDS011;6903;49.480;11.102;2022-11-06T02:00:29;58.73;;;25.47;;
13660;SDS011;6903;49.480;11.102;2022-11-06T02:02:56;60.07;;;26.40;;
13660;SDS011;6903;49.480;11.102;2022-11-06T02:05:22;53.50;;;25.97;;
13660;SDS011;6903;49.480;11.102;2022-11-06T02:07:48;56.07;;;25.73;;
13660;SDS011;6903;49.480;11.102;2022-11-06T02:10:14;63.07;;;26.63;;
13660;SDS011;6903;49.480;11.102;2022-11-06T02:15:44;59.37;;;26.57;;
13660;SDS011;6903;49.480;11.102;2022-11-06T02:21:23;55.13;;;24.97;;
13660;SDS011;6903;49.480;11.102;2022-11-06T02:29:35;47.30;;;24.07;;
13660;SDS011;6903;49.480;11.102;2022-11-06T02:32:10;53.13;;;23.30;;
13660;SDS011;6903;49.480;11.102;2022-11-06T02:34:41;41.53;;;22.17;;
13660;SDS011;6903;49.480;11.102;2022-11-06T02:37:12;49.17;;;23.07;;
13660;SDS011;6903;49.480;11.102;2022-11-06T02:39:41;57.83;;;23.87;;
13660;SDS011;6903;49.480;11.102;2022-11-06T02:42:09;57.93;;;24.27;;
13660;SDS011;6903;49.480;11.102;2022-11-06T02:44:36;57.33;;;23.80;;
13660;SDS011;6903;49.480;11.102;2022-11-06T02:47:05;55.40;;;23.80;;
13660;SDS011;6903;49.480;11.102;2022-11-06T02:49:47;50.60;;;22.40;;
13660;SDS011;6903;49.480;11.102;2022-11-06T02:52:29;46.90;;;21.97;;
13660;SDS011;6903;49.480;11.102;2022-11-06T02:55:20;56.40;;;23.00;;
13660;SDS011;6903;49.480;11.102;2022-11-06T02:57:51;52.80;;;22.40;;
13660;SDS011;6903;49.480;11.102;2022-11-06T03:00:21;45.40;;;20.60;;
13660;SDS011;6903;49.480;11.102;2022-11-06T03:02:56;47.53;;;20.77;;
13660;SDS011;6903;49.480;11.102;2022-11-06T03:05:32;44.20;;;21.17;;
13660;SDS011;6903;49.480;11.102;2022-11-06T03:10:43;46.50;;;20.87;;
13660;SDS011;6903;49.480;11.102;2022-11-06T03:13:26;51.63;;;21.47;;
13660;SDS011;6903;49.480;11.102;2022-11-06T03:21:06;50.17;;;21.30;;
13660;SDS011;6903;49.480;11.102;2022-11-06T03:23:56;48.63;;;21.17;;
13660;SDS011;6903;49.480;11.102;2022-11-06T03:26:36;53.67;;;22.40;;
13660;SDS011;6903;49.480;11.102;2022-11-06T03:29:15;52.10;;;21.40;;
13660;SDS011;6903;49.480;11.102;2022-11-06T03:31:51;56.63;;;23.27;;
13660;SDS011;6903;49.480;11.102;2022-11-06T03:34:35;49.60;;;22.27;;
13660;SDS011;6903;49.480;11.102;2022-11-06T03:37:06;47.63;;;21.33;;
13660;SDS011;6903;49.480;11.102;2022-11-06T03:39:38;50.53;;;21.80;;
13660;SDS011;6903;49.480;11.102;2022-11-06T03:42:11;41.50;;;19.90;;
13660;SDS011;6903;49.480;11.102;2022-11-06T03:44:42;53.33;;;20.57;;
13660;SDS011;6903;49.480;11.102;2022-11-06T03:47:18;55.47;;;21.10;;
13660;SDS011;6903;49.480;11.102;2022-11-06T03:49:50;53.40;;;20.20;;
13660;SDS011;6903;49.480;11.102;2022-11-06T03:52:26;49.90;;;18.27;;
13660;SDS011;6903;49.480;11.102;2022-11-06T03:54:59;45.13;;;19.13;;
13660;SDS011;6903;49.480;11.102;2022-11-06T03:57:35;46.40;;;19.37;;
13660;SDS011;6903;49.480;11.102;2022-11-06T04:00:07;39.33;;;18.37;;
13660;SDS011;6903;49.480;11.102;2022-11-06T04:02:34;38.20;;;18.43;;
13660;SDS011;6903;49.480;11.102;2022-11-06T04:05:06;43.13;;;19.23;;
13660;SDS011;6903;49.480;11.102;2022-11-06T04:07:38;37.47;;;18.50;;
13660;SDS011;6903;49.480;11.102;2022-11-06T04:10:28;41.30;;;18.43;;
13660;SDS011;6903;49.480;11.102;2022-11-06T04:13:15;39.70;;;18.83;;
13660;SDS011;6903;49.480;11.102;2022-11-06T04:16:01;38.47;;;18.23;;
13660;SDS011;6903;49.480;11.102;2022-11-06T04:18:27;43.80;;;18.83;;
13660;SDS011;6903;49.480;11.102;2022-11-06T04:24:06;42.90;;;19.33;;
13660;SDS011;6903;49.480;11.102;2022-11-06T04:27:03;44.43;;;19.07;;
13660;SDS011;6903;49.480;11.102;2022-11-06T04:29:33;39.83;;;18.20;;
13660;SDS011;6903;49.480;11.102;2022-11-06T04:32:10;45.53;;;19.80;;
13660;SDS011;6903;49.480;11.102;2022-11-06T04:34:42;45.00;;;18.37;;
13660;SDS011;6903;49.480;11.102;2022-11-06T04:37:20;40.67;;;19.03;;
13660;SDS011;6903;49.480;11.102;2022-11-06T04:40:03;40.83;;;19.37;;
13660;SDS011;6903;49.480;11.102;2022-11-06T04:45:17;42.03;;;20.07;;
13660;SDS011;6903;49.480;11.102;2022-11-06T04:47:47;54.23;;;21.23;;
13660;SDS011;6903;49.480;11.102;2022-11-06T04:50:14;46.23;;;19.73;;
13660;SDS011;6903;49.480;11.102;2022-11-06T04:52:42;51.83;;;19.27;;
13660;SDS011;6903;49.480;11.102;2022-11-06T04:55:09;67.43;;;21.93;;
13660;SDS011;6903;49.480;11.102;2022-11-06T04:57:34;62.13;;;21.93;;
13660;SDS011;6903;49.480;11.102;2022-11-06T04:59:59;66.50;;;22.53;;
13660;SDS011;6903;49.480;11.102;2022-11-06T05:02:25;48.87;;;20.60;;
13660;SDS011;6903;49.480;11.102;2022-11-06T05:04:50;48.63;;;19.93;;
13660;SDS011;6903;49.480;11.102;2022-11-06T05:07:15;66.97;;;21.87;;
13660;SDS011;6903;49.480;11.102;2022-11-06T05:09:41;53.97;;;21.57;;
13660;SDS011;6903;49.480;11.102;2022-11-06T05:12:06;98.27;;;25.60;;
13660;SDS011;6903;49.480;11.102;2022-11-06T05:14:32;92.30;;;25.20;;
13660;SDS011;6903;49.480;11.102;2022-11-06T05:16:57;81.73;;;23.43;;
13660;SDS011;6903;49.480;11.102;2022-11-06T05:19:23;80.47;;;24.73;;
13660;SDS011;6903;49.480;11.102;2022-11-06T05:21:48;106.00;;;25.33;;
13660;SDS011;6903;49.480;11.102;2022-11-06T05:24:32;108.63;;;24.77;;
13660;SDS011;6903;49.480;11.102;2022-11-06T05:26:57;107.43;;;23.50;;
13660;SDS011;6903;49.480;11.102;2022-11-06T05:29:23;96.97;;;24.37;;
13660;SDS011;6903;49.480;11.102;2022-11-06T05:31:48;77.37;;;21.07;;
13660;SDS011;6903;49.480;11.102;2022-11-06T05:34:13;97.87;;;25.23;;
13660;SDS011;6903;49.480;11.102;2022-11-06T05:36:39;97.53;;;24.07;;
13660;SDS011;6903;49.480;11.102;2022-11-06T05:39:04;95.33;;;23.70;;
13660;SDS011;6903;49.480;11.102;2022-11-06T05:41:29;98.47;;;23.03;;
13660;SDS011;6903;49.480;11.102;2022-11-06T05:43:55;87.03;;;23.03;;
13660;SDS011;6903;49.480;11.102;2022-11-06T05:46:20;102.03;;;24.07;;
13660;SDS011;6903;49.480;11.102;2022-11-06T05:48:45;104.17;;;24.63;;
13660;SDS011;6903;49.480;11.102;2022-11-06T05:51:11;220.00;;;33.90;;
13660;SDS011;6903;49.480;11.102;2022-11-06T05:53:36;82.13;;;21.70;;
13660;SDS011;6903;49.480;11.102;2022-11-06T05:56:02;101.63;;;22.23;;
13660;SDS011;6903;49.480;11.102;2022-11-06T05:58:28;79.60;;;21.53;;
13660;SDS011;6903;49.480;11.102;2022-11-06T06:00:54;82.93;;;22.23;;
13660;SDS011;6903;49.480;11.102;2022-11-06T06:03:19;82.47;;;21.60;;
13660;SDS011;6903;49.480;11.102;2022-11-06T06:05:45;82.77;;;20.70;;
13660;SDS011;6903;49.480;11.102;2022-11-06T06:08:11;91.57;;;23.20;;
13660;SDS011;6903;49.480;11.102;2022-11-06T06:10:39;123.63;;;24.87;;
13660;SDS011;6903;49.480;11.102;2022-11-06T06:13:05;84.40;;;19.30;;
13660;SDS011;6903;49.480;11.102;2022-11-06T06:15:31;84.53;;;23.50;;
13660;SDS011;6903;49.480;11.102;2022-11-06T06:17:56;71.73;;;20.77;;
13660;SDS011;6903;49.480;11.102;2022-11-06T06:20:22;113.77;;;22.77;;
13660;SDS011;6903;49.480;11.102;2022-11-06T06:22:53;136.43;;;26.77;;
13660;SDS011;6903;49.480;11.102;2022-11-06T06:25:20;143.13;;;26.93;;
13660;SDS011;6903;49.480;11.102;2022-11-06T06:27:45;156.33;;;27.67;;
13660;SDS011;6903;49.480;11.102;2022-11-06T06:30:11;206.57;;;31.40;;
13660;SDS011;6903;49.480;11.102;2022-11-06T06:32:36;153.43;;;26.97;;
13660;SDS011;6903;49.480;11.102;2022-11-06T06:35:01;233.13;;;33.67;;
13660;SDS011;6903;49.480;11.102;2022-11-06T06:37:27;213.10;;;32.77;;
13660;SDS011;6903;49.480;11.102;2022-11-06T06:39:52;190.03;;;30.67;;
13660;SDS011;6903;49.480;11.102;2022-11-06T06:42:18;206.47;;;32.23;;
13660;SDS011;6903;49.480;11.102;2022-11-06T06:44:43;251.27;;;34.43;;
13660;SDS011;6903;49.480;11.102;2022-11-06T06:47:08;300.03;;;38.80;;
13660;SDS011;6903;49.480;11.102;2022-11-06T06:49:33;135.23;;;27.20;;
13660;SDS011;6903;49.480;11.102;2022-11-06T06:51:59;180.20;;;32.90;;
13660;SDS011;6903;49.480;11.102;2022-11-06T06:54:25;211.20;;;34.40;;
13660;SDS011;6903;49.480;11.102;2022-11-06T06:56:50;244.20;;;35.50;;
13660;SDS011;6903;49.480;11.102;2022-11-06T06:59:15;251.33;;;38.07;;
13660;SDS011;6903;49.480;11.102;2022-11-06T07:01:41;134.00;;;31.37;;
13660;SDS011;6903;49.480;11.102;2022-11-06T07:04:07;124.87;;;30.43;;
13660;SDS011;6903;49.480;11.102;2022-11-06T07:06:33;154.37;;;29.77;;
13660;SDS011;6903;49.480;11.102;2022-11-06T07:08:58;154.03;;;31.77;;
13660;SDS011;6903;49.480;11.102;2022-11-06T07:11:23;119.70;;;30.53;;
13660;SDS011;6903;49.480;11.102;2022-11-06T07:13:49;102.20;;;29.37;;
13660;SDS011;6903;49.480;11.102;2022-11-06T07:16:14;86.87;;;26.43;;
13660;SDS011;6903;49.480;11.102;2022-11-06T07:18:40;58.57;;;22.53;;
13660;SDS011;6903;49.480;11.102;2022-11-06T07:21:08;79.80;;;26.03;;
13660;SDS011;6903;49.480;11.102;2022-11-06T07:23:36;67.70;;;24.10;;
13660;SDS011;6903;49.480;11.102;2022-11-06T07:26:02;76.97;;;24.53;;
13660;SDS011;6903;49.480;11.102;2022-11-06T07:28:28;80.77;;;26.17;;
13660;SDS011;6903;49.480;11.102;2022-11-06T07:30:57;70.50;;;23.83;;
13660;SDS011;6903;49.480;11.102;2022-11-06T07:33:26;69.37;;;24.97;;
13660;SDS011;6903;49.480;11.102;2022-11-06T07:35:52;63.27;;;25.53;;
13660;SDS011;6903;49.480;11.102;2022-11-06T07:38:17;62.80;;;24.67;;
13660;SDS011;6903;49.480;11.102;2022-11-06T07:40:42;56.70;;;24.47;;
13660;SDS011;6903;49.480;11.102;2022-11-06T07:43:09;56.00;;;22.80;;
13660;SDS011;6903;49.480;11.102;2022-11-06T07:45:35;62.17;;;24.17;;
13660;SDS011;6903;49.480;11.102;2022-11-06T07:48:01;57.10;;;24.50;;
13660;SDS011;6903;49.480;11.102;2022-11-06T07:50:28;60.70;;;23.80;;
13660;SDS011;6903;49.480;11.102;2022-11-06T07:52:53;56.27;;;24.43;;
13660;SDS011;6903;49.480;11.102;2022-11-06T07:55:19;61.13;;;24.33;;
13660;SDS011;6903;49.480;11.102;2022-11-06T07:57:44;50.23;;;23.30;;
13660;SDS011;6903;49.480;11.102;2022-11-06T08:00:10;55.20;;;23.97;;
13660;SDS011;6903;49.480;11.102;2022-11-06T08:02:36;48.90;;;21.37;;
13660;SDS011;6903;49.480;11.102;2022-11-06T08:05:01;51.70;;;21.97;;
13660;SDS011;6903;49.480;11.102;2022-11-06T08:07:27;47.17;;;20.47;;
13660;SDS011;6903;49.480;11.102;2022-11-06T08:09:52;43.97;;;17.80;;
13660;SDS011;6903;49.480;11.102;2022-11-06T08:12:17;42.57;;;19.67;;
13660;SDS011;6903;49.480;11.102;2022-11-06T08:14:43;45.70;;;18.70;;
13660;SDS011;6903;49.480;11.102;2022-11-06T08:17:08;44.93;;;19.67;;
13660;SDS011;6903;49.480;11.102;2022-11-06T08:19:34;47.07;;;19.77;;
13660;SDS011;6903;49.480;11.102;2022-11-06T08:21:59;47.43;;;20.80;;
13660;SDS011;6903;49.480;11.102;2022-11-06T08:24:24;48.20;;;20.07;;
13660;SDS011;6903;49.480;11.102;2022-11-06T08:26:50;53.07;;;20.20;;
13660;SDS011;6903;49.480;11.102;2022-11-06T08:29:15;50.67;;;18.40;;
13660;SDS011;6903;49.480;11.102;2022-11-06T08:31:41;46.73;;;17.40;;
13660;SDS011;6903;49.480;11.102;2022-11-06T08:34:06;42.27;;;19.23;;
13660;SDS011;6903;49.480;11.102;2022-11-06T08:36:39;39.43;;;18.60;;
13660;SDS011;6903;49.480;11.102;2022-11-06T08:39:14;43.90;;;17.90;;
13660;SDS011;6903;49.480;11.102;2022-11-06T08:41:39;58.93;;;19.60;;
13660;SDS011;6903;49.480;11.102;2022-11-06T08:44:05;42.43;;;19.70;;
13660;SDS011;6903;49.480;11.102;2022-11-06T08:46:30;41.37;;;18.93;;
13660;SDS011;6903;49.480;11.102;2022-11-06T08:48:56;39.50;;;19.80;;
13660;SDS011;6903;49.480;11.102;2022-11-06T08:51:21;36.73;;;17.73;;
13660;SDS011;6903;49.480;11.102;2022-11-06T08:53:47;38.87;;;18.67;;
13660;SDS011;6903;49.480;11.102;2022-11-06T08:56:12;37.27;;;19.47;;
13660;SDS011;6903;49.480;11.102;2022-11-06T08:58:38;37.40;;;17.90;;
13660;SDS011;6903;49.480;11.102;2022-11-06T09:01:03;35.27;;;17.17;;
13660;SDS011;6903;49.480;11.102;2022-11-06T09:03:29;33.53;;;17.80;;
13660;SDS011;6903;49.480;11.102;2022-11-06T09:05:54;35.57;;;17.57;;
13660;SDS011;6903;49.480;11.102;2022-11-06T09:08:19;37.40;;;18.00;;
13660;SDS011;6903;49.480;11.102;2022-11-06T09:10:45;35.30;;;19.53;;
13660;SDS011;6903;49.480;11.102;2022-11-06T09:13:10;32.03;;;16.27;;
13660;SDS011;6903;49.480;11.102;2022-11-06T09:15:36;31.67;;;18.00;;
13660;SDS011;6903;49.480;11.102;2022-11-06T09:18:02;33.93;;;17.50;;
13660;SDS011;6903;49.480;11.102;2022-11-06T09:20:28;29.87;;;17.27;;
13660;SDS011;6903;49.480;11.102;2022-11-06T09:22:53;28.47;;;15.70;;
13660;SDS011;6903;49.480;11.102;2022-11-06T09:25:19;32.60;;;17.87;;
13660;SDS011;6903;49.480;11.102;2022-11-06T09:27:46;30.77;;;17.40;;
13660;SDS011;6903;49.480;11.102;2022-11-06T09:30:13;31.70;;;17.73;;
13660;SDS011;6903;49.480;11.102;2022-11-06T09:32:56;28.20;;;17.27;;
13660;SDS011;6903;49.480;11.102;2022-11-06T09:35:23;30.57;;;18.27;;
13660;SDS011;6903;49.480;11.102;2022-11-06T09:37:50;30.03;;;17.33;;
13660;SDS011;6903;49.480;11.102;2022-11-06T09:45:49;24.93;;;16.87;;
13660;SDS011;6903;49.480;11.102;2022-11-06T09:48:19;26.93;;;17.27;;
13660;SDS011;6903;49.480;11.102;2022-11-06T09:50:57;24.43;;;16.50;;
13660;SDS011;6903;49.480;11.102;2022-11-06T09:53:38;24.37;;;16.13;;
13660;SDS011;6903;49.480;11.102;2022-11-06T09:56:10;23.00;;;15.83;;
13660;SDS011;6903;49.480;11.102;2022-11-06T09:58:37;23.27;;;15.47;;
13660;SDS011;6903;49.480;11.102;2022-11-06T10:01:12;24.87;;;15.73;;
13660;SDS011;6903;49.480;11.102;2022-11-06T10:03:44;22.80;;;15.77;;
13660;SDS011;6903;49.480;11.102;2022-11-06T10:06:16;21.23;;;14.50;;
13660;SDS011;6903;49.480;11.102;2022-11-06T10:08:43;19.37;;;14.60;;
13660;SDS011;6903;49.480;11.102;2022-11-06T10:13:49;20.20;;;13.90;;
13660;SDS011;6903;49.480;11.102;2022-11-06T10:16:36;18.00;;;13.40;;
13660;SDS011;6903;49.480;11.102;2022-11-06T10:21:44;16.23;;;12.67;;
13660;SDS011;6903;49.480;11.102;2022-11-06T10:24:22;14.57;;;11.87;;
13660;SDS011;6903;49.480;11.102;2022-11-06T10:27:13;18.27;;;13.47;;
13660;SDS011;6903;49.480;11.102;2022-11-06T10:29:48;18.20;;;13.13;;
13660;SDS011;6903;49.480;11.102;2022-11-06T10:35:22;19.87;;;14.67;;
13660;SDS011;6903;49.480;11.102;2022-11-06T10:38:14;17.83;;;13.87;;
13660;SDS011;6903;49.480;11.102;2022-11-06T10:40:45;17.30;;;13.53;;
13660;SDS011;6903;49.480;11.102;2022-11-06T10:46:03;18.63;;;12.63;;
13660;SDS011;6903;49.480;11.102;2022-11-06T10:48:39;16.43;;;13.70;;
13660;SDS011;6903;49.480;11.102;2022-11-06T12:33:13;13.20;;;9.87;;
13660;SDS011;6903;49.480;11.102;2022-11-06T12:38:14;13.43;;;9.50;;
13660;SDS011;6903;49.480;11.102;2022-11-06T12:41:00;14.57;;;9.40;;
13660;SDS011;6903;49.480;11.102;2022-11-06T12:43:38;12.13;;;9.40;;
13660;SDS011;6903;49.480;11.102;2022-11-06T12:48:52;13.23;;;9.57;;
13660;SDS011;6903;49.480;11.102;2022-11-06T12:59:28;11.23;;;9.27;;
13660;SDS011;6903;49.480;11.102;2022-11-06T13:05:54;12.33;;;9.07;;
13660;SDS011;6903;49.480;11.102;2022-11-06T13:18:55;11.77;;;9.20;;
13660;SDS011;6903;49.480;11.102;2022-11-06T13:22:13;11.90;;;9.60;;
13660;SDS011;6903;49.480;11.102;2022-11-06T13:29:37;12.10;;;9.90;;
13660;SDS011;6903;49.480;11.102;2022-11-06T13:32:07;12.03;;;9.50;;
13660;SDS011;6903;49.480;11.102;2022-11-06T13:34:38;12.17;;;9.70;;
13660;SDS011;6903;49.480;11.102;2022-11-06T13:37:05;13.07;;;10.17;;
13660;SDS011;6903;49.480;11.102;2022-11-06T13:39:40;12.07;;;9.67;;
13660;SDS011;6903;49.480;11.102;2022-11-06T13:42:18;11.77;;;9.73;;
13660;SDS011;6903;49.480;11.102;2022-11-06T13:44:47;12.00;;;9.30;;
13660;SDS011;6903;49.480;11.102;2022-11-06T13:47:14;13.70;;;9.47;;
13660;SDS011;6903;49.480;11.102;2022-11-06T13:52:30;12.73;;;9.23;;
13660;SDS011;6903;49.480;11.102;2022-11-06T13:55:13;10.80;;;8.80;;
13660;SDS011;6903;49.480;11.102;2022-11-06T14:06:21;13.60;;;9.13;;
13660;SDS011;6903;49.480;11.102;2022-11-06T14:08:54;13.03;;;9.73;;
13660;SDS011;6903;49.480;11.102;2022-11-06T14:11:24;12.50;;;9.73;;
13660;SDS011;6903;49.480;11.102;2022-11-06T14:14:04;13.60;;;9.43;;
13660;SDS011;6903;49.480;11.102;2022-11-06T14:16:40;12.93;;;10.03;;
13660;SDS011;6903;49.480;11.102;2022-11-06T14:24:37;11.90;;;9.37;;
13660;SDS011;6903;49.480;11.102;2022-11-06T14:27:11;12.17;;;9.27;;
13660;SDS011;6903;49.480;11.102;2022-11-06T14:29:58;11.97;;;9.47;;
13660;SDS011;6903;49.480;11.102;2022-11-06T14:34:54;11.93;;;9.83;;
13660;SDS011;6903;49.480;11.102;2022-11-06T14:37:43;11.90;;;9.30;;
13660;SDS011;6903;49.480;11.102;2022-11-06T14:40:11;14.03;;;10.90;;
13660;SDS011;6903;49.480;11.102;2022-11-06T14:42:41;12.53;;;9.90;;
13660;SDS011;6903;49.480;11.102;2022-11-06T14:45:10;13.37;;;10.07;;
13660;SDS011;6903;49.480;11.102;2022-11-06T14:50:23;14.37;;;11.00;;
13660;SDS011;6903;49.480;11.102;2022-11-06T14:52:50;13.37;;;10.13;;
13660;SDS011;6903;49.480;11.102;2022-11-06T14:55:27;14.47;;;11.20;;
13660;SDS011;6903;49.480;11.102;2022-11-06T14:58:00;13.90;;;10.93;;
13660;SDS011;6903;49.480;11.102;2022-11-06T15:03:21;13.33;;;10.70;;
13660;SDS011;6903;49.480;11.102;2022-11-06T15:05:47;13.63;;;10.73;;
13660;SDS011;6903;49.480;11.102;2022-11-06T15:08:25;18.43;;;12.37;;
13660;SDS011;6903;49.480;11.102;2022-11-06T15:13:54;15.03;;;11.43;;
13660;SDS011;6903;49.480;11.102;2022-11-06T15:16:20;14.97;;;11.40;;
13660;SDS011;6903;49.480;11.102;2022-11-06T15:18:47;15.70;;;11.40;;
13660;SDS011;6903;49.480;11.102;2022-11-06T15:21:23;15.77;;;11.00;;
13660;SDS011;6903;49.480;11.102;2022-11-06T15:24:00;14.63;;;11.47;;
13660;SDS011;6903;49.480;11.102;2022-11-06T15:26:37;17.43;;;11.83;;
13660;SDS011;6903;49.480;11.102;2022-11-06T15:31:39;14.93;;;11.97;;
13660;SDS011;6903;49.480;11.102;2022-11-06T15:34:12;14.97;;;12.00;;
13660;SDS011;6903;49.480;11.102;2022-11-06T15:36:42;17.93;;;12.43;;
13660;SDS011;6903;49.480;11.102;2022-11-06T15:39:19;16.90;;;12.73;;
13660;SDS011;6903;49.480;11.102;2022-11-06T15:42:06;15.77;;;12.07;;
13660;SDS011;6903;49.480;11.102;2022-11-06T15:44:33;18.60;;;13.20;;
13660;SDS011;6903;49.480;11.102;2022-11-06T15:47:03;15.33;;;11.67;;
13660;SDS011;6903;49.480;11.102;2022-11-06T15:49:28;17.17;;;13.00;;
13660;SDS011;6903;49.480;11.102;2022-11-06T15:51:58;16.90;;;12.47;;
13660;SDS011;6903;49.480;11.102;2022-11-06T15:54:37;17.67;;;12.83;;
13660;SDS011;6903;49.480;11.102;2022-11-06T15:57:06;19.80;;;14.07;;
13660;SDS011;6903;49.480;11.102;2022-11-06T15:59:39;18.53;;;13.47;;
13660;SDS011;6903;49.480;11.102;2022-11-06T16:02:08;16.50;;;12.63;;
13660;SDS011;6903;49.480;11.102;2022-11-06T16:04:39;20.83;;;13.50;;
13660;SDS011;6903;49.480;11.102;2022-11-06T16:07:05;17.67;;;12.33;;
13660;SDS011;6903;49.480;11.102;2022-11-06T16:09:31;21.27;;;14.07;;
13660;SDS011;6903;49.480;11.102;2022-11-06T16:11:57;25.10;;;16.97;;
13660;SDS011;6903;49.480;11.102;2022-11-06T16:14:23;18.00;;;13.33;;
13660;SDS011;6903;49.480;11.102;2022-11-06T16:16:52;21.00;;;14.87;;
13660;SDS011;6903;49.480;11.102;2022-11-06T16:19:29;21.00;;;15.10;;
13660;SDS011;6903;49.480;11.102;2022-11-06T16:22:01;22.30;;;15.07;;
13660;SDS011;6903;49.480;11.102;2022-11-06T16:24:36;23.00;;;16.50;;
13660;SDS011;6903;49.480;11.102;2022-11-06T16:27:05;27.47;;;19.07;;
13660;SDS011;6903;49.480;11.102;2022-11-06T16:29:31;24.23;;;16.00;;
13660;SDS011;6903;49.480;11.102;2022-11-06T16:32:04;23.97;;;16.63;;
13660;SDS011;6903;49.480;11.102;2022-11-06T16:34:34;22.60;;;14.57;;
13660;SDS011;6903;49.480;11.102;2022-11-06T16:49:34;26.30;;;18.47;;
13660;SDS011;6903;49.480;11.102;2022-11-06T16:52:01;26.03;;;17.90;;
13660;SDS011;6903;49.480;11.102;2022-11-06T16:54:48;28.33;;;18.57;;
13660;SDS011;6903;49.480;11.102;2022-11-06T16:57:19;25.43;;;17.60;;
13660;SDS011;6903;49.480;11.102;2022-11-06T17:02:31;27.73;;;17.97;;
13660;SDS011;6903;49.480;11.102;2022-11-06T17:05:07;26.80;;;19.20;;
13660;SDS011;6903;49.480;11.102;2022-11-06T17:07:43;26.77;;;17.77;;
13660;SDS011;6903;49.480;11.102;2022-11-06T17:10:55;27.93;;;19.70;;
13660;SDS011;6903;49.480;11.102;2022-11-06T17:12:58;28.00;;;17.50;;
13660;SDS011;6903;49.480;11.102;2022-11-06T17:15:24;27.10;;;18.30;;
13660;SDS011;6903;49.480;11.102;2022-11-06T17:17:50;28.13;;;17.37;;
13660;SDS011;6903;49.480;11.102;2022-11-06T17:20:16;30.70;;;18.93;;
13660;SDS011;6903;49.480;11.102;2022-11-06T17:22:43;25.70;;;17.70;;
13660;SDS011;6903;49.480;11.102;2022-11-06T17:25:10;32.03;;;19.97;;
13660;SDS011;6903;49.480;11.102;2022-11-06T17:27:35;29.37;;;19.67;;
13660;SDS011;6903;49.480;11.102;2022-11-06T17:30:01;30.83;;;21.03;;
13660;SDS011;6903;49.480;11.102;2022-11-06T17:32:26;34.70;;;20.77;;
13660;SDS011;6903;49.480;11.102;2022-11-06T17:34:51;30.70;;;20.97;;
13660;SDS011;6903;49.480;11.102;2022-11-06T17:37:17;33.30;;;19.87;;
13660;SDS011;6903;49.480;11.102;2022-11-06T17:39:45;31.20;;;20.77;;
13660;SDS011;6903;49.480;11.102;2022-11-06T17:42:11;36.77;;;26.53;;
13660;SDS011;6903;49.480;11.102;2022-11-06T17:44:37;31.43;;;21.20;;
13660;SDS011;6903;49.480;11.102;2022-11-06T17:47:02;27.10;;;18.03;;
13660;SDS011;6903;49.480;11.102;2022-11-06T17:49:28;26.87;;;19.23;;
13660;SDS011;6903;49.480;11.102;2022-11-06T17:51:53;28.87;;;20.87;;
13660;SDS011;6903;49.480;11.102;2022-11-06T17:54:25;32.47;;;20.97;;
13660;SDS011;6903;49.480;11.102;2022-11-06T17:56:53;35.47;;;24.87;;
13660;SDS011;6903;49.480;11.102;2022-11-06T17:59:19;29.30;;;19.97;;
13660;SDS011;6903;49.480;11.102;2022-11-06T18:01:45;29.93;;;19.03;;
13660;SDS011;6903;49.480;11.102;2022-11-06T18:04:17;30.67;;;20.60;;
13660;SDS011;6903;49.480;11.102;2022-11-06T18:06:44;29.10;;;19.57;;
13660;SDS011;6903;49.480;11.102;2022-11-06T18:09:10;30.60;;;21.20;;
13660;SDS011;6903;49.480;11.102;2022-11-06T18:11:37;30.83;;;22.13;;
13660;SDS011;6903;49.480;11.102;2022-11-06T18:14:02;30.93;;;20.67;;
13660;SDS011;6903;49.480;11.102;2022-11-06T18:16:29;32.10;;;22.30;;
13660;SDS011;6903;49.480;11.102;2022-11-06T18:18:56;31.00;;;21.57;;
13660;SDS011;6903;49.480;11.102;2022-11-06T18:21:22;29.57;;;20.17;;